createdAt,value
2022-08-14T00:02:27.245Z,101220.38
2022-08-14T00:04:56.189Z,101223.84
2022-08-14T00:07:25.937Z,101225.94
2022-08-14T00:10:01.429Z,101227.13
2022-08-14T00:12:48.294Z,101223.72
2022-08-14T00:15:30.003Z,101232.44
2022-08-14T00:18:07.006Z,101224.19
2022-08-14T00:20:43.160Z,101219.56
2022-08-14T00:23:16.361Z,101234.06
2022-08-14T00:25:58.756Z,101235.03
2022-08-14T00:28:36.703Z,101225.91
2022-08-14T00:31:08.096Z,101223.97
2022-08-14T00:33:50.776Z,101222.91
2022-08-14T00:36:35.277Z,101225.22
2022-08-14T00:39:14.238Z,101218.44
2022-08-14T00:41:42.591Z,101222.16
2022-08-14T00:44:11.432Z,101212.75
2022-08-14T00:46:40.996Z,101217.06
2022-08-14T00:49:11.610Z,101213.47
2022-08-14T00:51:44.596Z,101209.50
2022-08-14T00:54:21.840Z,101211.47
2022-08-14T00:56:54.843Z,101202.88
2022-08-14T00:59:25.364Z,101207.50
2022-08-14T01:01:57.109Z,101201.34
2022-08-14T01:04:38.337Z,101199.00
2022-08-14T01:07:21.153Z,101195.41
2022-08-14T01:09:52.676Z,101199.13
2022-08-14T01:12:26.502Z,101202.06
2022-08-14T01:14:58.315Z,101196.41
2022-08-14T01:17:49.582Z,101194.41
2022-08-14T01:20:39.625Z,101190.06
2022-08-14T01:23:16.758Z,101195.16
2022-08-14T01:25:49.055Z,101187.97
2022-08-14T01:28:34.167Z,101191.19
2022-08-14T01:31:09.625Z,101191.03
2022-08-14T01:33:59.206Z,101193.47
2022-08-14T01:36:29.830Z,101198.75
2022-08-14T01:39:09.728Z,101194.59
2022-08-14T01:41:41.934Z,101197.16
2022-08-14T01:44:33.290Z,101195.09
2022-08-14T01:47:05.854Z,101193.00
2022-08-14T01:49:35.488Z,101186.88
2022-08-14T01:52:13.429Z,101195.22
2022-08-14T01:54:58.652Z,101196.97
2022-08-14T01:57:49.599Z,101197.16
2022-08-14T02:00:19.168Z,101195.28
2022-08-14T02:02:47.408Z,101194.44
2022-08-14T02:05:21.454Z,101199.34
2022-08-14T02:07:55.581Z,101195.56
2022-08-14T02:10:28.996Z,101186.94
2022-08-14T02:12:59.406Z,101183.50
2022-08-14T02:15:27.734Z,101181.41
2022-08-14T02:17:55.705Z,101181.41
2022-08-14T02:20:24.376Z,101188.38
2022-08-14T02:22:54.793Z,101185.16
2022-08-14T02:25:23.438Z,101181.13
2022-08-14T02:28:23.733Z,101182.03
2022-08-14T02:30:44.674Z,101180.72
2022-08-14T02:33:14.149Z,101180.44
2022-08-14T02:35:43.519Z,101174.03
2022-08-14T02:38:30.232Z,101165.63
2022-08-14T02:41:00.485Z,101164.97
2022-08-14T02:43:36.741Z,101157.38
2022-08-14T02:46:05.685Z,101160.16
2022-08-14T02:49:01.406Z,101160.56
2022-08-14T02:51:26.511Z,101156.16
2022-08-14T02:53:59.049Z,101164.59
2022-08-14T02:56:30.548Z,101158.22
2022-08-14T02:59:18.563Z,101151.47
2022-08-14T03:01:50.911Z,101151.91
2022-08-14T03:04:23.001Z,101148.28
2022-08-14T03:06:57.877Z,101134.56
2022-08-14T03:10:24.770Z,101138.97
2022-08-14T03:12:31.720Z,101143.88
2022-08-14T03:15:16.563Z,101145.09
2022-08-14T03:17:57.727Z,101144.91
2022-08-14T03:20:28.327Z,101144.22
2022-08-14T03:22:59.523Z,101138.03
2022-08-14T03:25:34.042Z,101139.72
2022-08-14T03:28:07.157Z,101139.78
2022-08-14T03:30:39.835Z,101141.00
2022-08-14T03:33:11.062Z,101140.53
2022-08-14T03:35:59.759Z,101143.03
2022-08-14T03:39:11.592Z,101145.09
2022-08-14T03:41:22.975Z,101145.06
2022-08-14T03:43:57.125Z,101148.47
2022-08-14T03:46:51.975Z,101147.44
2022-08-14T03:49:24.400Z,101145.91
2022-08-14T03:51:57.700Z,101141.09
2022-08-14T03:54:26.456Z,101142.06
2022-08-14T03:56:54.981Z,101141.69
2022-08-14T03:59:23.396Z,101128.22
2022-08-14T04:01:57.859Z,101132.63
2022-08-14T04:04:29.616Z,101137.09
2022-08-14T04:07:00.184Z,101137.03
2022-08-14T04:09:29.339Z,101138.47
2022-08-14T04:11:58.297Z,101128.50
2022-08-14T04:14:29.005Z,101125.28
2022-08-14T04:16:58.813Z,101128.56
2022-08-14T04:19:28.091Z,101122.75
2022-08-14T04:22:03.740Z,101109.59
2022-08-14T04:24:38.302Z,101113.66
2022-08-14T04:27:09.634Z,101121.34
2022-08-14T04:29:39.345Z,101127.06
2022-08-14T04:33:00.365Z,101120.00
2022-08-14T04:34:58.470Z,101114.69
2022-08-14T04:37:45.190Z,101118.72
2022-08-14T04:40:40.817Z,101116.03
2022-08-14T04:43:38.427Z,101118.41
2022-08-14T04:46:08.672Z,101122.53
2022-08-14T04:48:43.254Z,101121.53
2022-08-14T04:51:15.474Z,101118.31
2022-08-14T04:53:46.080Z,101119.06
2022-08-14T04:56:31.626Z,101118.38
2022-08-14T04:59:10.208Z,101119.25
2022-08-14T05:01:45.175Z,101121.13
2022-08-14T05:04:19.984Z,101121.63
2022-08-14T05:06:49.812Z,101115.66
2022-08-14T05:09:21.674Z,101122.94
2022-08-14T05:11:49.867Z,101114.38
2022-08-14T05:14:45.610Z,101117.38
2022-08-14T05:17:10.800Z,101108.31
2022-08-14T05:19:44.555Z,101107.47
2022-08-14T05:22:29.159Z,101108.38
2022-08-14T05:24:57.171Z,101109.91
2022-08-14T05:27:26.143Z,101108.63
2022-08-14T05:29:59.749Z,101103.78
2022-08-14T05:32:28.449Z,101096.47
2022-08-14T05:34:59.984Z,101097.06
2022-08-14T05:37:30.775Z,101095.78
2022-08-14T05:40:01.105Z,101080.28
2022-08-14T05:42:34.049Z,101076.94
2022-08-14T05:45:02.444Z,101071.03
2022-08-14T05:47:39.042Z,101068.50
2022-08-14T05:50:17.588Z,101074.84
2022-08-14T05:52:49.282Z,101073.59
2022-08-14T05:55:21.979Z,101073.97
2022-08-14T05:57:54.114Z,101082.84
2022-08-14T06:00:28.519Z,101076.13
2022-08-14T06:02:58.481Z,101078.22
2022-08-14T06:05:30.013Z,101068.94
2022-08-14T06:07:59.061Z,101076.09
2022-08-14T06:10:28.059Z,101068.94
2022-08-14T06:12:57.975Z,101067.59
2022-08-14T06:15:30.410Z,101066.13
2022-08-14T06:18:00.207Z,101065.50
2022-08-14T06:20:31.520Z,101055.59
2022-08-14T06:23:02.748Z,101064.66
2022-08-14T06:25:31.605Z,101049.06
2022-08-14T06:28:00.820Z,101039.34
2022-08-14T06:30:45.727Z,101041.00
2022-08-14T06:33:16.281Z,101043.56
2022-08-14T06:35:49.830Z,101044.38
2022-08-14T06:38:20.494Z,101044.59
2022-08-14T06:40:52.068Z,101048.38
2022-08-14T06:43:27.079Z,101046.53
2022-08-14T06:45:58.026Z,101044.38
2022-08-14T06:48:29.015Z,101049.53
2022-08-14T06:51:02.467Z,101047.59
2022-08-14T06:53:31.455Z,101050.50
2022-08-14T06:56:02.295Z,101059.09
2022-08-14T06:58:32.131Z,101053.44
2022-08-14T07:01:26.922Z,101044.97
2022-08-14T07:04:24.067Z,101051.56
2022-08-14T07:06:59.176Z,101049.09
2022-08-14T07:09:44.349Z,101037.31
2022-08-14T07:12:52.021Z,101039.13
2022-08-14T07:15:05.399Z,101030.75
2022-08-14T07:17:34.288Z,101027.91
2022-08-14T07:20:02.558Z,101030.13
2022-08-14T07:22:32.770Z,101022.66
2022-08-14T07:25:08.989Z,101026.31
2022-08-14T07:27:37.345Z,101012.56
2022-08-14T07:30:33.716Z,101016.09
2022-08-14T07:32:58.593Z,101021.38
2022-08-14T07:35:30.320Z,101026.28
2022-08-14T07:38:07.469Z,101018.13
2022-08-14T07:40:36.765Z,101019.75
2022-08-14T07:43:14.301Z,101019.41
2022-08-14T07:45:43.273Z,101000.19
2022-08-14T07:48:11.821Z,101011.97
2022-08-14T07:50:45.500Z,101013.00
2022-08-14T07:53:15.642Z,101002.91
2022-08-14T07:55:45.308Z,101000.41
2022-08-14T07:58:34.163Z,100989.88
2022-08-14T08:01:02.578Z,100992.84
2022-08-14T08:03:35.448Z,100995.31
2022-08-14T08:06:04.109Z,100985.94
2022-08-14T08:08:40.862Z,100989.47
2022-08-14T08:11:14.837Z,100991.91
2022-08-14T08:13:49.147Z,100986.97
2022-08-14T08:16:24.458Z,100988.22
2022-08-14T08:18:57.697Z,100984.94
2022-08-14T08:21:33.343Z,100991.75
2022-08-14T08:24:06.362Z,100987.16
2022-08-14T08:26:34.894Z,100991.72
2022-08-14T08:29:07.292Z,100978.53
2022-08-14T08:31:36.505Z,100979.28
2022-08-14T08:34:07.265Z,100976.34
2022-08-14T08:36:43.102Z,100975.44
2022-08-14T08:39:22.882Z,100972.78
2022-08-14T08:41:54.118Z,100973.94
2022-08-14T08:44:32.084Z,100972.56
2022-08-14T08:47:05.669Z,100975.22
2022-08-14T08:49:53.384Z,100954.50
2022-08-14T08:52:31.209Z,100957.59
2022-08-14T08:55:04.926Z,100954.09
2022-08-14T08:57:37.601Z,100948.91
2022-08-14T09:00:24.576Z,100958.53
2022-08-14T09:02:57.751Z,100954.09
2022-08-14T09:05:26.648Z,100950.25
2022-08-14T09:07:56.722Z,100944.06
2022-08-14T09:10:27.232Z,100946.38
2022-08-14T09:12:58.681Z,100938.66
2022-08-14T09:15:36.690Z,100945.63
2022-08-14T09:18:11.649Z,100936.97
2022-08-14T09:20:41.231Z,100926.88
2022-08-14T09:23:11.318Z,100926.41
2022-08-14T09:25:59.625Z,100924.72
2022-08-14T09:28:29.818Z,100915.34
2022-08-14T09:31:01.513Z,100914.03
2022-08-14T09:33:57.521Z,100916.19
2022-08-14T09:36:35.406Z,100913.78
2022-08-14T09:39:22.960Z,100912.81
2022-08-14T09:42:21.853Z,100918.84
2022-08-14T09:45:15.320Z,100914.44
2022-08-14T09:47:47.196Z,100907.22
2022-08-14T09:50:26.049Z,100897.81
2022-08-14T09:52:59.618Z,100900.13
2022-08-14T09:55:41.497Z,100889.19
2022-08-14T09:58:19.879Z,100883.59
2022-08-14T10:00:53.947Z,100888.25
2022-08-14T10:03:33.829Z,100873.94
2022-08-14T10:06:07.211Z,100871.94
2022-08-14T10:08:50.707Z,100878.84
2022-08-14T10:11:23.573Z,100876.84
2022-08-14T10:13:56.823Z,100876.16
2022-08-14T10:16:32.990Z,100864.13
2022-08-14T10:19:07.182Z,100868.66
2022-08-14T10:21:38.937Z,100863.16
2022-08-14T10:24:31.023Z,100854.25
2022-08-14T10:27:06.495Z,100852.72
2022-08-14T10:29:40.796Z,100852.13
2022-08-14T10:32:17.440Z,100847.25
2022-08-14T10:34:52.820Z,100832.72
2022-08-14T10:37:23.177Z,100829.19
2022-08-14T10:40:05.408Z,100825.59
2022-08-14T10:42:40.547Z,100813.16
2022-08-14T10:45:21.231Z,100801.97
2022-08-14T10:48:07.664Z,100806.13
2022-08-14T10:50:45.753Z,100797.03
2022-08-14T10:53:15.305Z,100800.91
2022-08-14T10:55:45.388Z,100799.25
2022-08-14T10:58:15.066Z,100794.06
2022-08-14T11:00:58.891Z,100792.78
2022-08-14T11:03:56.431Z,100789.66
2022-08-14T11:06:25.557Z,100795.28
2022-08-14T11:08:55.806Z,100788.97
2022-08-14T11:11:28.578Z,100788.13
2022-08-14T11:14:09.397Z,100779.78
2022-08-14T11:16:41.708Z,100787.09
2022-08-14T11:19:25.147Z,100792.41
2022-08-14T11:21:56.022Z,100783.41
2022-08-14T11:24:54.182Z,100783.09
2022-08-14T11:27:20.582Z,100779.75
2022-08-14T11:29:52.742Z,100765.28
2022-08-14T11:32:31.119Z,100774.34
2022-08-14T11:35:01.569Z,100779.16
2022-08-14T11:37:40.541Z,100771.53
2022-08-14T11:40:28.525Z,100774.69
2022-08-14T11:42:59.430Z,100775.91
2022-08-14T11:45:34.292Z,100771.94
2022-08-14T11:49:02.432Z,100762.84
2022-08-14T11:51:13.822Z,100763.88
2022-08-14T11:53:43.870Z,100777.75
2022-08-14T11:56:13.961Z,100762.00
2022-08-14T11:58:42.370Z,100753.91
2022-08-14T12:01:10.818Z,100755.03
2022-08-14T12:03:51.678Z,100753.91
2022-08-14T12:06:28.842Z,100750.75
2022-08-14T12:09:08.703Z,100744.97
2022-08-14T12:11:47.239Z,100739.22
2022-08-14T12:14:29.810Z,100743.97
2022-08-14T12:17:02.173Z,100742.81
2022-08-14T12:19:33.793Z,100751.84
2022-08-14T12:22:03.096Z,100727.53
2022-08-14T12:24:36.562Z,100727.03
2022-08-14T12:27:08.144Z,100726.91
2022-08-14T12:29:37.528Z,100722.53
2022-08-14T12:32:12.551Z,100718.31
2022-08-14T12:34:45.067Z,100718.38
2022-08-14T12:37:13.649Z,100715.81
2022-08-14T12:39:41.854Z,100703.03
2022-08-14T12:42:11.954Z,100698.59
2022-08-14T12:44:59.880Z,100696.97
2022-08-14T12:47:32.597Z,100694.47
2022-08-14T12:50:02.444Z,100683.63
2022-08-14T12:52:41.619Z,100686.88
2022-08-14T12:55:22.455Z,100682.88
2022-08-14T12:58:28.743Z,100676.97
2022-08-14T13:01:14.254Z,100675.88
2022-08-14T13:03:42.825Z,100662.28
2022-08-14T13:06:15.660Z,100672.53
2022-08-14T13:08:52.913Z,100664.16
2022-08-14T13:11:25.720Z,100661.72
2022-08-14T13:13:59.297Z,100663.59
2022-08-14T13:16:38.581Z,100655.88
2022-08-14T13:19:12.897Z,100651.13
2022-08-14T13:22:04.846Z,100647.81
2022-08-14T13:24:34.743Z,100628.34
2022-08-14T13:27:05.200Z,100629.75
2022-08-14T13:29:40.514Z,100622.00
2022-08-14T13:32:10.441Z,100620.34
2022-08-14T13:34:41.150Z,100617.56
2022-08-14T13:37:11.688Z,100615.34
2022-08-14T13:39:56.334Z,100609.44
2022-08-14T13:42:30.501Z,100598.78
2022-08-14T13:45:01.357Z,100592.69
2022-08-14T13:47:33.166Z,100587.78
2022-08-14T13:50:04.798Z,100593.56
2022-08-14T13:52:51.339Z,100587.53
2022-08-14T13:55:31.408Z,100580.91
2022-08-14T13:58:04.863Z,100581.44
2022-08-14T14:00:53.571Z,100577.03
2022-08-14T14:03:25.385Z,100570.66
2022-08-14T14:05:59.067Z,100571.22
2022-08-14T14:08:43.239Z,100565.09
2022-08-14T14:11:15.874Z,100549.00
2022-08-14T14:13:45.268Z,100558.16
2022-08-14T14:16:26.510Z,100560.06
2022-08-14T14:19:09.679Z,100539.75
2022-08-14T14:21:40.348Z,100542.63
2022-08-14T14:24:11.793Z,100531.50
2022-08-14T14:26:47.237Z,100530.41
2022-08-14T14:29:16.881Z,100531.53
2022-08-14T14:31:48.455Z,100518.97
2022-08-14T14:34:29.144Z,100519.81
2022-08-14T14:37:04.558Z,100515.09
2022-08-14T14:39:38.013Z,100525.44
2022-08-14T14:42:27.872Z,100518.09
2022-08-14T14:45:05.867Z,100524.28
2022-08-14T14:47:35.161Z,100518.47
2022-08-14T14:50:05.041Z,100515.97
2022-08-14T14:52:37.138Z,100510.94
2022-08-14T14:55:12.450Z,100512.63
2022-08-14T14:57:40.963Z,100502.03
2022-08-14T15:00:19.590Z,100506.50
2022-08-14T15:02:51.594Z,100500.47
2022-08-14T15:05:20.725Z,100501.81
2022-08-14T15:07:51.121Z,100493.47
2022-08-14T15:10:27.928Z,100498.22
2022-08-14T15:13:03.629Z,100495.16
2022-08-14T15:15:32.646Z,100505.44
2022-08-14T15:18:01.623Z,100507.94
2022-08-14T15:20:31.197Z,100498.22
2022-08-14T15:23:11.868Z,100505.34
2022-08-14T15:25:42.179Z,100498.22
2022-08-14T15:28:12.896Z,100492.41
2022-08-14T15:30:42.069Z,100485.47
2022-08-14T15:33:11.804Z,100489.09
2022-08-14T15:35:44.849Z,100479.38
2022-08-14T15:38:17.672Z,100479.38
2022-08-14T15:40:56.199Z,100483.22
2022-08-14T15:43:27.339Z,100473.00
2022-08-14T15:45:59.271Z,100465.47
2022-08-14T15:48:29.581Z,100477.66
2022-08-14T15:50:58.492Z,100475.22
2022-08-14T15:53:26.549Z,100474.63
2022-08-14T15:56:01.226Z,100468.56
2022-08-14T15:58:30.445Z,100473.81
2022-08-14T16:01:31.190Z,100464.38
2022-08-14T16:04:04.004Z,100462.16
2022-08-14T16:06:35.699Z,100463.25
2022-08-14T16:09:11.050Z,100451.63
2022-08-14T16:11:47.549Z,100449.41
2022-08-14T16:14:21.866Z,100447.16
2022-08-14T16:16:59.810Z,100439.41
2022-08-14T16:19:31.471Z,100449.13
2022-08-14T16:22:57.215Z,100439.38
2022-08-14T16:27:44.382Z,100436.06
2022-08-14T16:30:20.741Z,100429.69
2022-08-14T16:32:59.058Z,100435.28
2022-08-14T16:35:42.489Z,100416.13
2022-08-14T16:38:29.407Z,100421.38
2022-08-14T16:40:24.277Z,100439.13
2022-08-14T16:41:27.452Z,100421.66
2022-08-14T16:44:02.453Z,100416.56
2022-08-14T16:46:37.294Z,100416.53
2022-08-14T16:49:08.093Z,100418.81
2022-08-14T16:51:38.620Z,100426.84
2022-08-14T16:54:33.833Z,100414.38
2022-08-14T16:57:13.122Z,100409.09
2022-08-14T16:59:52.581Z,100411.38
2022-08-14T17:02:35.152Z,100412.06
2022-08-14T17:05:21.002Z,100406.03
2022-08-14T17:08:32.427Z,100407.19
2022-08-14T17:11:11.159Z,100410.97
2022-08-14T17:13:59.512Z,100402.69
2022-08-14T17:16:35.501Z,100396.59
2022-08-14T17:19:05.404Z,100396.50
2022-08-14T17:21:37.353Z,100398.25
2022-08-14T17:24:58.511Z,100401.56
2022-08-14T17:26:57.384Z,100397.59
2022-08-14T17:29:31.168Z,100384.41
2022-08-14T17:32:03.374Z,100399.94
2022-08-14T17:34:45.507Z,100388.84
2022-08-14T17:37:25.793Z,100391.81
2022-08-14T17:43:02.038Z,100399.97
2022-08-14T17:45:51.375Z,100391.63
2022-08-14T17:49:14.062Z,100395.16
2022-08-14T17:51:23.688Z,100396.06
2022-08-14T17:54:02.523Z,100397.78
2022-08-14T17:56:32.980Z,100393.16
2022-08-14T17:59:06.845Z,100395.09
2022-08-14T18:01:45.865Z,100395.50
2022-08-14T18:04:27.828Z,100399.94
2022-08-14T18:07:16.572Z,100405.44
2022-08-14T18:09:57.219Z,100402.63
2022-08-14T18:12:36.634Z,100403.22
2022-08-14T18:15:14.698Z,100404.47
2022-08-14T18:17:52.809Z,100413.88
2022-08-14T18:21:40.730Z,100418.78
2022-08-14T18:23:14.204Z,100412.28
2022-08-14T18:25:48.205Z,100418.22
2022-08-14T18:28:18.255Z,100417.31
2022-08-14T18:31:43.892Z,100416.66
2022-08-14T18:34:32.130Z,100430.28
2022-08-14T18:37:16.960Z,100441.53
2022-08-14T18:40:02.996Z,100439.56
2022-08-14T18:42:45.417Z,100433.78
2022-08-14T18:45:18.950Z,100439.22
2022-08-14T18:48:16.007Z,100442.88
2022-08-14T18:50:52.390Z,100446.72
2022-08-14T18:53:24.847Z,100446.31
2022-08-14T18:56:01.961Z,100445.81
2022-08-14T18:58:57.119Z,100453.84
2022-08-14T19:01:29.774Z,100462.09
2022-08-14T19:03:58.787Z,100458.22
2022-08-14T19:06:56.685Z,100460.16
2022-08-14T19:09:56.217Z,100460.63
2022-08-14T19:12:56.772Z,100463.38
2022-08-14T19:15:27.282Z,100470.56
2022-08-14T19:18:14.652Z,100468.53
2022-08-14T19:20:52.544Z,100467.69
2022-08-14T19:23:42.380Z,100469.78
2022-08-14T19:26:35.462Z,100472.94
2022-08-14T19:29:37.920Z,100470.66
2022-08-14T19:32:39.149Z,100473.34
2022-08-14T19:35:55.521Z,100476.81
2022-08-14T19:38:57.645Z,100485.00
2022-08-14T19:41:33.898Z,100473.50
2022-08-14T19:44:15.777Z,100470.16
2022-08-14T19:47:00.053Z,100471.50
2022-08-14T19:50:08.022Z,100461.97
2022-08-14T19:52:26.460Z,100458.47
2022-08-14T19:55:00.100Z,100458.97
2022-08-14T19:57:30.792Z,100448.31
2022-08-14T20:00:28.741Z,100461.81
2022-08-14T20:03:09.900Z,100453.47
2022-08-14T20:05:45.420Z,100447.94
2022-08-14T20:10:59.769Z,100452.78
2022-08-14T20:11:16.013Z,100449.28
2022-08-14T20:14:01.949Z,100445.75
2022-08-14T20:16:40.506Z,100456.72
2022-08-14T20:19:28.794Z,100456.63
2022-08-14T20:22:35.289Z,100457.75
2022-08-14T20:24:47.530Z,100452.50
2022-08-14T20:27:24.838Z,100453.50
2022-08-14T20:33:01.374Z,100452.97
2022-08-14T20:35:35.785Z,100445.66
2022-08-14T20:38:31.160Z,100443.31
2022-08-14T20:40:55.944Z,100442.28
2022-08-14T20:43:44.579Z,100446.00
2022-08-14T20:46:16.277Z,100449.38
2022-08-14T20:48:58.239Z,100442.97
2022-08-14T20:51:37.039Z,100445.88
2022-08-14T20:54:07.415Z,100452.50
2022-08-14T20:56:38.051Z,100448.59
2022-08-14T20:59:18.993Z,100452.63
2022-08-14T21:01:55.224Z,100450.19
2022-08-14T21:04:28.158Z,100453.44
2022-08-14T21:07:25.361Z,100454.97
2022-08-14T21:10:05.458Z,100457.88
2022-08-14T21:12:55.527Z,100458.81
2022-08-14T21:15:32.310Z,100458.09
2022-08-14T21:18:01.800Z,100458.56
2022-08-14T21:20:29.780Z,100456.47
2022-08-14T21:23:01.776Z,100451.19
2022-08-14T21:25:31.567Z,100447.97
2022-08-14T21:28:03.270Z,100455.63
2022-08-14T21:30:46.875Z,100441.94
2022-08-14T21:33:23.521Z,100440.19
2022-08-14T21:35:54.953Z,100444.72
2022-08-14T21:38:33.536Z,100443.03
2022-08-14T21:41:41.762Z,100438.91
2022-08-14T21:44:17.468Z,100437.97
2022-08-14T21:46:49.742Z,100433.91
2022-08-14T21:49:22.813Z,100429.59
2022-08-14T21:52:00.987Z,100432.97
2022-08-14T21:54:50.025Z,100433.13
2022-08-14T21:58:44.501Z,100431.75
2022-08-14T22:00:35.772Z,100427.84
2022-08-14T22:03:04.429Z,100432.75
2022-08-14T22:05:33.944Z,100428.22
2022-08-14T22:08:07.363Z,100426.78
2022-08-14T22:10:37.056Z,100421.50
2022-08-14T22:13:05.383Z,100430.84
2022-08-14T22:15:33.604Z,100421.47
2022-08-14T22:18:04.201Z,100430.00
2022-08-14T22:20:36.324Z,100421.97
2022-08-14T22:23:08.553Z,100426.41
2022-08-14T22:25:40.985Z,100422.22
2022-08-14T22:28:12.993Z,100426.00
2022-08-14T22:30:41.607Z,100425.09
2022-08-14T22:33:13.286Z,100430.41
2022-08-14T22:35:43.789Z,100430.22
2022-08-14T22:38:35.665Z,100419.69
2022-08-14T22:41:26.712Z,100422.34
2022-08-14T22:43:50.061Z,100417.63
2022-08-14T22:46:20.620Z,100415.25
2022-08-14T22:48:50.946Z,100411.53
2022-08-14T22:51:22.725Z,100408.53
2022-08-14T22:53:53.104Z,100403.88
2022-08-14T22:56:29.416Z,100409.72
2022-08-14T22:59:00.130Z,100404.22
2022-08-14T23:01:55.029Z,100407.28
2022-08-14T23:04:34.795Z,100409.13
2022-08-14T23:07:21.998Z,100403.31
2022-08-14T23:09:56.498Z,100400.63
2022-08-14T23:12:29.259Z,100406.22
2022-08-14T23:14:59.925Z,100402.19
2022-08-14T23:17:38.823Z,100398.47
2022-08-14T23:20:19.014Z,100399.22
2022-08-14T23:22:52.850Z,100397.41
2022-08-14T23:25:56.666Z,100393.09
2022-08-14T23:28:34.417Z,100397.53
2022-08-14T23:30:58.340Z,100411.19
2022-08-14T23:33:28.759Z,100413.72
2022-08-14T23:35:58.724Z,100399.13
2022-08-14T23:38:30.353Z,100403.69
2022-08-14T23:41:00.794Z,100395.19
2022-08-14T23:43:31.161Z,100399.50
2022-08-14T23:46:00.405Z,100396.25
2022-08-14T23:48:29.373Z,100392.72
2022-08-14T23:50:59.058Z,100394.09
2022-08-14T23:53:48.070Z,100396.50
2022-08-14T23:56:20.365Z,100393.97
2022-08-14T23:59:00.996Z,100394.47
